Time;durP1;ratioP1;P1;durP2;ratioP2;P2;SDS_P1;SDS_P2;PMS_P1;PMS_P2;Temp;Humidity;BMP_temperature;BMP_pressure;BME280_temperature;BME280_humidity;BME280_pressure;Samples;Min_cycle;Max_cycle;Signal;HPM_P1;HPM_P2
2022/11/04 00:01:26;;;;;;;19.73;18.02;;;11.60;99.90;;;;;;5139642;27;20080;-73
2022/11/04 00:03:53;;;;;;;24.25;21.75;;;11.60;99.90;;;;;;5090446;27;20051;-72
2022/11/04 00:06:19;;;;;;;18.58;17.02;;;11.60;99.90;;;;;;5105033;27;20046;-73
2022/11/04 00:08:50;;;;;;;21.73;19.65;;;11.50;99.90;;;;;;5109711;27;20030;-72
2022/11/04 00:14:05;;;;;;;19.17;17.38;;;11.50;99.90;;;;;;5123091;27;20104;-73
2022/11/04 00:19:15;;;;;;;16.67;15.07;;;11.50;99.90;;;;;;5121939;27;20051;-73
2022/11/04 00:30:15;;;;;;;8.90;7.90;;;11.30;99.90;;;;;;5103762;27;20039;-73
2022/11/04 00:35:25;;;;;;;7.43;4.90;;;11.30;99.90;;;;;;5090155;27;20125;-73
2022/11/04 00:37:50;;;;;;;8.00;5.93;;;11.20;99.90;;;;;;5110590;27;20548;-74
2022/11/04 00:40:16;;;;;;;7.57;5.43;;;11.10;99.90;;;;;;5105373;27;20050;-73
2022/11/04 00:42:44;;;;;;;8.25;5.55;;;11.10;99.90;;;;;;5105359;27;20110;-73
2022/11/04 00:45:10;;;;;;;6.30;3.85;;;11.10;99.90;;;;;;5116322;27;20102;-73
2022/11/04 00:47:36;;;;;;;4.78;3.05;;;11.00;99.90;;;;;;5125189;27;20051;-73
2022/11/04 00:50:02;;;;;;;5.07;3.35;;;11.00;99.90;;;;;;5119440;27;20088;-73
2022/11/04 00:52:27;;;;;;;4.80;2.80;;;11.00;99.90;;;;;;5098012;27;20039;-73
2022/11/04 00:54:53;;;;;;;6.50;3.28;;;10.90;99.90;;;;;;5122730;27;20039;-73
2022/11/04 00:57:19;;;;;;;4.13;2.60;;;10.90;99.90;;;;;;5109813;27;20061;-73
2022/11/04 00:59:44;;;;;;;3.50;1.90;;;10.90;99.90;;;;;;5104279;27;20115;-73
2022/11/04 01:02:11;;;;;;;3.33;1.55;;;10.90;99.90;;;;;;5125628;27;20043;-73
2022/11/04 01:04:37;;;;;;;3.45;1.48;;;10.90;99.90;;;;;;5105231;27;20039;-74
2022/11/04 01:07:03;;;;;;;3.17;0.98;;;10.90;99.90;;;;;;5138234;27;20043;-73
2022/11/04 01:09:29;;;;;;;3.10;0.70;;;10.90;99.90;;;;;;5086513;27;20125;-73
2022/11/04 01:11:55;;;;;;;1.95;0.50;;;10.90;99.90;;;;;;5108698;27;20122;-73
2022/11/04 01:14:21;;;;;;;1.85;0.52;;;10.90;99.90;;;;;;5088529;27;20574;-73
2022/11/04 01:16:49;;;;;;;2.45;0.60;;;10.80;99.90;;;;;;5119374;27;20051;-73
2022/11/04 01:19:15;;;;;;;1.77;0.60;;;10.80;99.90;;;;;;5122840;27;20450;-73
2022/11/04 01:21:41;;;;;;;3.47;0.77;;;10.70;99.90;;;;;;5117224;27;20051;-73
2022/11/04 01:24:07;;;;;;;2.50;0.60;;;10.70;99.90;;;;;;5113268;27;20093;-73
2022/11/04 01:26:33;;;;;;;1.88;0.60;;;10.70;99.90;;;;;;5101599;27;20050;-73
2022/11/04 01:29:02;;;;;;;2.05;0.60;;;10.70;99.90;;;;;;5086329;27;20039;-73
2022/11/04 01:31:29;;;;;;;3.70;1.08;;;10.70;99.90;;;;;;5108084;27;20051;-74
2022/11/04 01:33:57;;;;;;;2.80;0.80;;;10.70;99.90;;;;;;5106225;27;20490;-74
2022/11/04 01:36:24;;;;;;;3.47;0.98;;;10.70;99.90;;;;;;5111323;27;20077;-73
2022/11/04 01:38:50;;;;;;;4.57;1.00;;;10.70;99.90;;;;;;5099429;27;20095;-73
2022/11/04 01:41:21;;;;;;;6.18;1.00;;;10.70;99.90;;;;;;5097542;27;20073;-73
2022/11/04 01:43:53;;;;;;;3.75;0.85;;;10.70;99.90;;;;;;5104750;27;20520;-74
2022/11/04 01:46:25;;;;;;;5.38;1.20;;;10.70;99.90;;;;;;5092648;27;20096;-73
2022/11/04 01:48:53;;;;;;;4.25;1.00;;;10.70;99.90;;;;;;5117515;27;20049;-73
2022/11/04 01:51:19;;;;;;;2.83;0.80;;;10.60;99.90;;;;;;5130739;27;20216;-73
2022/11/04 01:53:45;;;;;;;3.65;1.13;;;10.70;99.90;;;;;;5122619;27;20042;-73
2022/11/04 01:56:14;;;;;;;3.47;0.95;;;10.70;99.90;;;;;;5107542;27;20047;-73
2022/11/04 01:58:48;;;;;;;4.63;1.20;;;10.70;99.90;;;;;;5119961;27;20055;-74
2022/11/04 02:01:14;;;;;;;4.40;1.15;;;10.70;99.90;;;;;;5131439;27;20058;-73
2022/11/04 02:04:24;;;;;;;4.15;1.02;;;10.70;99.90;;;;;;5116805;27;20039;-73
2022/11/04 02:06:43;;;;;;;2.30;0.70;;;10.70;99.90;;;;;;5123385;27;20035;-73
2022/11/04 02:09:10;;;;;;;2.13;0.63;;;10.70;99.90;;;;;;5102547;27;20124;-73
2022/11/04 02:14:20;;;;;;;1.52;0.40;;;10.70;99.90;;;;;;5102948;27;20625;-73
2022/11/04 02:16:48;;;;;;;3.22;0.52;;;10.70;99.90;;;;;;5100788;27;20039;-73
2022/11/04 02:19:35;;;;;;;2.38;0.47;;;10.70;99.90;;;;;;5134486;27;20047;-73
2022/11/04 02:22:14;;;;;;;2.50;0.25;;;10.70;99.90;;;;;;5103345;27;20071;-73
2022/11/04 02:25:03;;;;;;;1.92;0.40;;;10.70;99.90;;;;;;5128961;27;20559;-73
2022/11/04 02:27:37;;;;;;;2.97;0.32;;;10.70;99.90;;;;;;5118925;27;20038;-73
2022/11/04 02:30:21;;;;;;;2.85;0.30;;;10.70;99.90;;;;;;5118379;27;20505;-71
2022/11/04 02:33:02;;;;;;;1.27;0.30;;;10.70;99.90;;;;;;5093816;27;20047;-71
2022/11/04 02:35:53;;;;;;;2.20;0.55;;;10.70;99.90;;;;;;5123808;27;20583;-71
2022/11/04 02:38:36;;;;;;;3.55;0.30;;;10.70;99.90;;;;;;5122490;27;20043;-73
2022/11/04 02:41:08;;;;;;;0.32;0.20;;;10.70;99.90;;;;;;5120039;27;20039;-73
2022/11/04 02:43:40;;;;;;;2.28;0.25;;;10.70;99.90;;;;;;5120003;27;20057;-73
2022/11/04 02:46:22;;;;;;;1.50;0.20;;;10.70;99.90;;;;;;5100699;27;20055;-73
2022/11/04 02:49:12;;;;;;;2.47;0.20;;;10.60;99.90;;;;;;5122803;27;20137;-73
2022/11/04 02:51:47;;;;;;;;;;;10.60;99.90;;;;;;5105702;27;20055;-73
2022/11/04 02:54:37;;;;;;;2.88;0.47;;;10.60;99.90;;;;;;5114580;27;20336;-73
2022/11/04 02:57:08;;;;;;;4.60;0.70;;;10.50;99.90;;;;;;5119336;27;20095;-73
2022/11/04 02:59:38;;;;;;;2.35;0.77;;;10.50;99.90;;;;;;5106403;27;20489;-73
2022/11/04 03:02:08;;;;;;;2.50;0.82;;;10.60;99.90;;;;;;5106502;27;20046;-73
2022/11/04 03:04:39;;;;;;;3.80;0.80;;;10.50;99.90;;;;;;5117552;27;20075;-74
2022/11/04 03:07:10;;;;;;;4.50;1.50;;;10.60;99.90;;;;;;5102891;28;20051;-74
2022/11/04 03:09:37;;;;;;;6.07;1.67;;;10.60;99.90;;;;;;5121006;27;20084;-74
2022/11/04 03:12:08;;;;;;;3.50;1.52;;;10.60;99.90;;;;;;5127550;27;20070;-73
2022/11/04 03:14:43;;;;;;;6.85;1.65;;;10.60;99.90;;;;;;5146683;27;20061;-73
2022/11/04 03:17:48;;;;;;;2.85;1.55;;;10.60;99.90;;;;;;5129320;27;20127;-74
2022/11/04 03:20:20;;;;;;;5.85;1.48;;;10.60;99.90;;;;;;5096089;28;20055;-73
2022/11/04 03:22:46;;;;;;;3.22;1.20;;;10.70;99.90;;;;;;5141548;27;20079;-73
2022/11/04 03:25:20;;;;;;;4.13;1.48;;;10.60;99.90;;;;;;5103236;27;20073;-74
2022/11/04 03:28:00;;;;;;;6.20;1.80;;;10.70;99.90;;;;;;5143615;27;20128;-74
2022/11/04 03:30:44;;;;;;;5.72;1.98;;;10.70;99.90;;;;;;5144681;27;20051;-73
2022/11/04 03:33:31;;;;;;;3.80;1.92;;;10.70;99.90;;;;;;5112072;27;20109;-74
2022/11/04 03:35:57;;;;;;;5.05;2.85;;;10.70;99.90;;;;;;5115175;27;20134;-74
2022/11/04 03:38:23;;;;;;;6.53;2.30;;;10.60;99.90;;;;;;5093173;27;20220;-75
2022/11/04 03:40:50;;;;;;;5.75;2.35;;;10.70;99.90;;;;;;5104183;27;20430;-74
2022/11/04 03:43:21;;;;;;;6.63;1.90;;;10.70;99.90;;;;;;5118669;27;20397;-74
2022/11/04 03:45:47;;;;;;;2.42;0.60;;;10.60;99.90;;;;;;5093964;28;20050;-74
2022/11/04 03:48:13;;;;;;;2.20;0.40;;;10.60;99.90;;;;;;5160255;27;20039;-74
2022/11/04 03:50:41;;;;;;;2.67;0.50;;;10.50;99.90;;;;;;5120221;27;20046;-74
2022/11/04 03:53:09;;;;;;;3.55;0.60;;;10.30;99.90;;;;;;5135428;27;20055;-74
2022/11/04 03:55:38;;;;;;;2.38;0.40;;;10.20;99.90;;;;;;5124235;27;20042;-74
2022/11/04 03:58:15;;;;;;;2.40;0.30;;;10.20;99.90;;;;;;5095282;27;20039;-74
2022/11/04 04:00:50;;;;;;;1.73;0.28;;;10.10;99.90;;;;;;5102701;27;20067;-74
2022/11/04 04:03:32;;;;;;;1.00;0.30;;;10.10;99.90;;;;;;5138769;27;20401;-74
2022/11/04 04:06:16;;;;;;;1.42;0.40;;;10.10;99.90;;;;;;5112394;27;20047;-74
2022/11/04 04:09:10;;;;;;;3.13;0.40;;;10.10;99.90;;;;;;5158223;27;20043;-74
2022/11/04 04:11:54;;;;;;;1.60;0.32;;;10.10;99.90;;;;;;5111799;27;20113;-74
2022/11/04 04:14:38;;;;;;;1.20;0.38;;;10.00;99.90;;;;;;5109156;27;20036;-73
2022/11/04 04:17:24;;;;;;;3.33;0.55;;;10.00;99.90;;;;;;5140154;27;20031;-74
2022/11/04 04:20:04;;;;;;;4.20;0.70;;;10.20;99.90;;;;;;5124096;27;20058;-74
2022/11/04 04:23:02;;;;;;;7.47;0.80;;;10.10;99.90;;;;;;5114842;27;20107;-74
2022/11/04 04:28:20;;;;;;;2.42;0.50;;;10.10;99.90;;;;;;5124208;27;20413;-74
2022/11/04 04:30:45;;;;;;;3.50;0.70;;;10.10;99.90;;;;;;5109280;27;20082;-74
2022/11/04 04:33:15;;;;;;;3.08;0.60;;;10.10;99.90;;;;;;5113322;27;20071;-74
2022/11/04 04:35:54;;;;;;;4.28;0.73;;;10.20;99.90;;;;;;5128085;27;20039;-75
2022/11/04 04:47:18;;;;;;;3.03;0.50;;;10.20;99.90;;;;;;5128967;27;20059;-72
2022/11/04 04:49:56;;;;;;;2.80;0.60;;;10.20;99.90;;;;;;5108176;27;20122;-72
2022/11/04 04:52:24;;;;;;;2.70;0.75;;;10.10;99.90;;;;;;5106499;27;20573;-74
2022/11/04 04:54:50;;;;;;;4.43;0.73;;;10.20;99.90;;;;;;5103148;27;20039;-74
2022/11/04 04:57:16;;;;;;;4.85;0.80;;;10.20;99.90;;;;;;5137264;27;20074;-74
2022/11/04 04:59:42;;;;;;;3.28;0.75;;;10.20;99.90;;;;;;5103448;27;20130;-74
2022/11/04 05:02:10;;;;;;;2.85;0.95;;;10.20;99.90;;;;;;5127508;27;20048;-74
2022/11/04 05:04:36;;;;;;;2.00;0.65;;;10.20;99.90;;;;;;5102443;27;20493;-74
2022/11/04 05:07:02;;;;;;;2.80;0.73;;;10.20;99.90;;;;;;5097825;27;20048;-74
2022/11/04 05:09:33;;;;;;;4.18;1.08;;;10.20;99.90;;;;;;5084972;28;20048;-74
2022/11/04 05:11:59;;;;;;;3.13;1.00;;;10.20;99.90;;;;;;5108362;27;20533;-74
2022/11/04 05:14:25;;;;;;;2.35;1.15;;;10.20;99.90;;;;;;5136556;27;20070;-74
2022/11/04 05:16:51;;;;;;;2.20;1.13;;;10.20;99.90;;;;;;5104452;27;20055;-74
2022/11/04 05:19:17;;;;;;;1.52;0.80;;;10.20;99.90;;;;;;5101859;27;20126;-74
2022/11/04 05:21:43;;;;;;;3.83;1.00;;;10.20;99.90;;;;;;5100390;28;20039;-74
2022/11/04 05:24:09;;;;;;;4.20;0.60;;;10.20;99.90;;;;;;5114122;27;20396;-71
2022/11/04 05:26:35;;;;;;;7.28;0.98;;;10.20;99.90;;;;;;5118294;27;20043;-72
2022/11/04 05:29:01;;;;;;;3.03;0.73;;;10.20;99.90;;;;;;5112831;27;20050;-74
2022/11/04 05:31:29;;;;;;;2.80;0.80;;;10.10;99.90;;;;;;5107050;27;20072;-74
2022/11/04 05:33:55;;;;;;;3.58;0.77;;;10.10;99.90;;;;;;5079385;28;20062;-73
2022/11/04 05:36:21;;;;;;;5.45;1.17;;;10.00;99.90;;;;;;5097653;27;20046;-74
2022/11/04 05:38:51;;;;;;;2.97;0.75;;;10.00;99.90;;;;;;5119652;27;20393;-74
2022/11/04 05:41:24;;;;;;;4.28;0.75;;;10.00;99.90;;;;;;5118419;27;20510;-74
2022/11/04 05:43:58;;;;;;;3.80;1.05;;;10.00;99.90;;;;;;5100504;27;20047;-74
2022/11/04 05:46:27;;;;;;;4.07;0.80;;;10.00;99.90;;;;;;5115052;27;20511;-74
2022/11/04 05:48:53;;;;;;;2.30;0.47;;;10.00;99.90;;;;;;5096085;27;20051;-73
2022/11/04 05:51:25;;;;;;;2.38;0.77;;;9.90;99.90;;;;;;5113526;27;20047;-74
2022/11/04 05:53:51;;;;;;;3.95;0.70;;;9.90;99.90;;;;;;5110288;27;20107;-73
2022/11/04 05:56:22;;;;;;;4.30;1.00;;;9.80;99.90;;;;;;5097122;27;20035;-73
2022/11/04 05:58:48;;;;;;;5.45;1.08;;;9.80;99.90;;;;;;5140758;27;20047;-73
2022/11/04 06:01:29;;;;;;;3.78;0.90;;;9.80;99.90;;;;;;5097450;28;20486;-73
2022/11/04 06:03:56;;;;;;;3.78;1.00;;;9.70;99.90;;;;;;5091938;28;20490;-73
2022/11/04 06:06:24;;;;;;;4.75;0.80;;;9.60;99.90;;;;;;5098617;28;20043;-73
2022/11/04 06:08:51;;;;;;;4.43;0.90;;;9.60;99.90;;;;;;5095706;28;20044;-73
2022/11/04 06:11:18;;;;;;;2.85;0.70;;;9.50;99.90;;;;;;5124056;27;20040;-73
2022/11/04 06:13:43;;;;;;;3.05;0.75;;;9.40;99.90;;;;;;5082481;28;20051;-73
2022/11/04 06:16:09;;;;;;;5.68;1.00;;;9.40;99.90;;;;;;5105191;27;20031;-73
2022/11/04 06:18:35;;;;;;;2.33;0.63;;;9.40;99.90;;;;;;5107666;27;20078;-73
2022/11/04 06:21:13;;;;;;;1.75;0.70;;;9.30;99.90;;;;;;5123736;27;20039;-73
2022/11/04 06:23:39;;;;;;;1.80;0.60;;;9.30;99.90;;;;;;5109192;27;20049;-73
2022/11/04 06:26:05;;;;;;;2.95;0.60;;;9.20;99.90;;;;;;5097230;28;20044;-72
2022/11/04 06:28:31;;;;;;;3.30;0.60;;;9.20;99.90;;;;;;5087566;27;20044;-72
2022/11/04 06:30:59;;;;;;;3.30;0.90;;;9.10;99.90;;;;;;5069118;27;20440;-73
2022/11/04 06:33:31;;;;;;;3.25;0.90;;;9.00;99.90;;;;;;5088188;27;20035;-73
2022/11/04 06:36:05;;;;;;;3.30;1.17;;;9.00;99.90;;;;;;5102724;27;20040;-73
2022/11/04 06:38:32;;;;;;;4.05;1.20;;;9.00;99.90;;;;;;5108117;27;20562;-73
2022/11/04 06:40:59;;;;;;;3.30;1.38;;;8.90;99.90;;;;;;5105594;27;20913;-73
2022/11/04 06:43:25;;;;;;;4.03;1.23;;;8.90;99.90;;;;;;5103108;27;20039;-73
2022/11/04 06:45:55;;;;;;;4.05;0.73;;;8.90;99.90;;;;;;5121882;27;20520;-73
2022/11/04 06:48:21;;;;;;;4.53;1.10;;;8.90;99.90;;;;;;5135213;27;20513;-73
2022/11/04 06:50:46;;;;;;;3.78;0.85;;;8.90;99.90;;;;;;5138004;27;20051;-75
2022/11/04 06:53:12;;;;;;;4.65;1.20;;;8.90;99.90;;;;;;5121825;27;20121;-75
2022/11/04 06:55:38;;;;;;;3.28;0.70;;;8.90;99.90;;;;;;5103806;27;20103;-75
2022/11/04 06:58:04;;;;;;;3.42;0.80;;;8.90;99.90;;;;;;5118122;27;20052;-75
2022/11/04 07:00:30;;;;;;;3.65;0.90;;;9.00;99.90;;;;;;5120530;27;20048;-75
2022/11/04 07:02:55;;;;;;;2.83;0.88;;;8.90;99.90;;;;;;5117650;27;20516;-75
2022/11/04 07:05:21;;;;;;;1.45;0.63;;;9.00;99.90;;;;;;5108656;27;20058;-73
2022/11/04 07:07:47;;;;;;;1.85;0.60;;;9.00;99.90;;;;;;5114438;27;20071;-73
2022/11/04 07:10:13;;;;;;;3.42;0.60;;;9.10;99.90;;;;;;5122799;27;20049;-74
2022/11/04 07:12:39;;;;;;;3.80;0.80;;;9.10;99.90;;;;;;5087268;27;20061;-73
2022/11/04 07:15:08;;;;;;;3.92;0.77;;;9.10;99.90;;;;;;5140469;27;20047;-73
2022/11/04 07:17:34;;;;;;;3.27;0.93;;;9.20;99.90;;;;;;5129604;27;20062;-73
2022/11/04 07:20:00;;;;;;;2.38;0.70;;;9.20;99.90;;;;;;5128381;27;20280;-74
2022/11/04 07:22:25;;;;;;;2.65;0.70;;;9.10;99.90;;;;;;5123992;27;20043;-73
2022/11/04 07:24:51;;;;;;;3.75;0.95;;;9.20;99.90;;;;;;5122228;27;20645;-74
2022/11/04 07:27:17;;;;;;;2.88;1.05;;;9.10;99.90;;;;;;5102506;27;20052;-73
2022/11/04 07:29:42;;;;;;;1.90;0.90;;;9.10;99.90;;;;;;5114349;27;20099;-73
2022/11/04 07:32:08;;;;;;;3.25;1.00;;;9.10;99.90;;;;;;5106612;27;20031;-74
2022/11/04 07:34:34;;;;;;;3.85;1.10;;;9.10;99.90;;;;;;5136470;27;20043;-74
2022/11/04 07:37:00;;;;;;;3.90;0.90;;;9.00;99.90;;;;;;5094595;27;20051;-74
2022/11/04 07:39:26;;;;;;;3.40;1.40;;;9.00;99.90;;;;;;5143302;27;20051;-74
2022/11/04 07:41:52;;;;;;;3.22;1.30;;;9.00;99.90;;;;;;5110218;27;20081;-73
2022/11/04 07:44:17;;;;;;;2.75;1.10;;;9.00;99.90;;;;;;5156468;27;20390;-73
2022/11/04 07:46:43;;;;;;;2.80;1.10;;;9.00;99.90;;;;;;5103847;27;20047;-73
2022/11/04 07:49:10;;;;;;;2.95;1.20;;;9.00;99.90;;;;;;5101472;27;20031;-74
2022/11/04 07:51:38;;;;;;;2.97;1.13;;;9.00;99.90;;;;;;5119833;27;20080;-76
2022/11/04 07:54:04;;;;;;;2.53;1.15;;;9.00;99.90;;;;;;5104207;27;20043;-74
2022/11/04 07:56:33;;;;;;;4.95;0.95;;;9.00;99.90;;;;;;5082359;27;20405;-75
2022/11/04 07:58:59;;;;;;;3.33;1.55;;;9.00;99.90;;;;;;5097512;27;20462;-75
2022/11/04 08:01:25;;;;;;;3.50;1.23;;;9.10;99.90;;;;;;5118245;27;20090;-75
2022/11/04 08:03:51;;;;;;;3.92;1.50;;;9.10;99.90;;;;;;5117478;27;20490;-75
2022/11/04 08:06:20;;;;;;;4.05;1.73;;;9.10;99.90;;;;;;5124732;27;20039;-75
2022/11/04 08:08:47;;;;;;;4.20;1.80;;;9.10;99.90;;;;;;5118472;27;20094;-75
2022/11/04 08:11:16;;;;;;;4.18;1.67;;;9.20;99.90;;;;;;5108214;27;20457;-75
2022/11/04 08:13:42;;;;;;;5.30;1.80;;;9.10;99.90;;;;;;5116265;27;20042;-75
2022/11/04 08:16:12;;;;;;;3.65;1.50;;;9.20;99.90;;;;;;5102810;27;21145;-75
2022/11/04 08:18:39;;;;;;;4.90;1.45;;;9.20;99.90;;;;;;5135512;27;20040;-75
2022/11/04 08:21:05;;;;;;;2.55;1.30;;;9.30;99.90;;;;;;5135789;27;20447;-75
2022/11/04 08:23:32;;;;;;;3.17;1.30;;;9.30;99.90;;;;;;5131182;27;20118;-75
2022/11/04 08:25:58;;;;;;;4.47;1.50;;;9.40;99.90;;;;;;5119881;27;20047;-75
2022/11/04 08:28:24;;;;;;;6.53;1.73;;;9.40;99.90;;;;;;5097259;27;20070;-75
2022/11/04 08:30:54;;;;;;;3.28;1.50;;;9.50;99.90;;;;;;5121960;27;20751;-75
2022/11/04 08:33:20;;;;;;;3.50;1.35;;;9.50;99.90;;;;;;5118689;27;20501;-75
2022/11/04 08:35:46;;;;;;;2.85;1.02;;;9.60;99.90;;;;;;5103283;27;20488;-75
2022/11/04 08:38:12;;;;;;;3.05;1.40;;;9.70;99.90;;;;;;5117068;27;20074;-75
2022/11/04 08:40:38;;;;;;;2.90;1.25;;;9.80;99.90;;;;;;5095915;27;20124;-75
2022/11/04 08:43:04;;;;;;;5.10;1.63;;;9.90;99.90;;;;;;5083942;27;20054;-76
2022/11/04 08:45:30;;;;;;;5.68;1.67;;;10.00;99.90;;;;;;5105273;27;20043;-75
2022/11/04 08:47:56;;;;;;;4.75;1.52;;;10.10;99.90;;;;;;5090958;27;20054;-75
2022/11/04 08:50:26;;;;;;;4.95;1.60;;;10.10;99.90;;;;;;5098085;27;20039;-75
2022/11/04 08:52:52;;;;;;;4.65;1.52;;;10.20;99.90;;;;;;5090462;27;20409;-75
2022/11/04 08:55:18;;;;;;;4.15;1.70;;;10.20;99.90;;;;;;5095338;27;20039;-76
2022/11/04 08:57:44;;;;;;;6.25;2.13;;;10.20;99.90;;;;;;5078470;27;20058;-75
2022/11/04 09:00:11;;;;;;;4.22;1.70;;;10.30;99.90;;;;;;5092078;27;20469;-75
2022/11/04 09:02:36;;;;;;;4.53;2.15;;;10.30;99.90;;;;;;5086970;27;20596;-75
2022/11/04 09:05:03;;;;;;;4.15;2.10;;;10.40;99.90;;;;;;5148812;27;20035;-76
2022/11/04 09:07:34;;;;;;;3.90;1.60;;;10.50;99.90;;;;;;5131178;27;20039;-75
2022/11/04 09:10:01;;;;;;;5.10;1.80;;;10.50;99.90;;;;;;5102795;27;20039;-76
2022/11/04 09:12:27;;;;;;;3.65;1.90;;;10.50;99.90;;;;;;5082079;27;20055;-75
2022/11/04 09:14:52;;;;;;;3.95;1.60;;;10.50;99.90;;;;;;5096026;27;20624;-75
2022/11/04 09:17:19;;;;;;;4.78;1.80;;;10.50;99.90;;;;;;5090612;27;20917;-75
2022/11/04 09:19:44;;;;;;;4.75;1.90;;;10.60;99.90;;;;;;5108664;27;20528;-75
2022/11/04 09:22:10;;;;;;;5.55;2.13;;;10.60;99.90;;;;;;5080503;27;20076;-76
2022/11/04 09:24:36;;;;;;;4.43;2.10;;;10.70;99.90;;;;;;5096351;27;20050;-75
2022/11/04 09:27:04;;;;;;;6.80;2.17;;;10.80;99.90;;;;;;5083626;27;20071;-75
2022/11/04 09:29:32;;;;;;;5.50;2.80;;;10.70;99.90;;;;;;5121768;27;20122;-75
2022/11/04 09:32:02;;;;;;;9.57;3.35;;;10.80;99.90;;;;;;5105119;27;20042;-76
2022/11/04 09:34:31;;;;;;;8.45;5.20;;;10.80;99.90;;;;;;5088394;27;20120;-77
2022/11/04 09:36:57;;;;;;;8.57;5.32;;;10.90;99.90;;;;;;5107195;27;20039;-76
2022/11/04 09:39:24;;;;;;;8.57;4.93;;;10.90;99.90;;;;;;5116954;27;20048;-76
2022/11/04 09:41:56;;;;;;;7.28;6.57;;;10.90;99.90;;;;;;5113676;27;20125;-75
2022/11/04 09:44:53;;;;;;;10.25;7.53;;;11.00;99.90;;;;;;5118232;27;20065;-76
2022/11/04 09:47:23;;;;;;;9.38;8.32;;;11.00;99.90;;;;;;5114260;27;20585;-75
2022/11/04 09:49:53;;;;;;;13.50;11.10;;;11.00;99.90;;;;;;5114776;27;20066;-73
2022/11/04 09:52:37;;;;;;;12.02;10.27;;;11.10;99.90;;;;;;5103428;27;20057;-73
2022/11/04 09:55:13;;;;;;;11.80;10.02;;;11.10;99.90;;;;;;5108459;27;20126;-73
2022/11/04 09:57:39;;;;;;;10.32;9.07;;;11.10;99.90;;;;;;5118035;27;20123;-73
2022/11/04 10:00:06;;;;;;;10.05;9.02;;;11.10;99.90;;;;;;5080135;27;22075;-73
2022/11/04 10:02:52;;;;;;;12.15;9.30;;;11.00;99.90;;;;;;5085758;27;20039;-73
2022/11/04 10:05:37;;;;;;;13.93;10.70;;;11.00;99.90;;;;;;5112506;27;20047;-73
2022/11/04 10:08:02;;;;;;;11.25;9.65;;;11.10;99.90;;;;;;5115872;27;20039;-74
2022/11/04 10:10:52;;;;;;;10.95;8.95;;;11.10;99.90;;;;;;5099320;27;20047;-73
2022/11/04 10:13:30;;;;;;;9.30;7.82;;;11.10;99.90;;;;;;5108899;27;20054;-73
2022/11/04 10:16:14;;;;;;;10.50;8.15;;;11.20;99.90;;;;;;5095738;27;20074;-73
2022/11/04 10:18:49;;;;;;;13.02;8.80;;;11.10;99.90;;;;;;5119330;27;20129;-73
2022/11/04 10:21:39;;;;;;;10.20;8.82;;;11.10;99.90;;;;;;5113797;27;20043;-73
2022/11/04 10:24:14;;;;;;;11.68;9.75;;;11.20;99.90;;;;;;5146546;27;20035;-73
2022/11/04 10:26:44;;;;;;;10.20;9.20;;;11.20;99.90;;;;;;5112808;27;20228;-75
2022/11/04 10:29:34;;;;;;;12.05;9.43;;;11.20;99.90;;;;;;5114966;27;20119;-75
2022/11/04 10:32:03;;;;;;;10.27;8.90;;;11.20;99.90;;;;;;5098688;27;20063;-73
2022/11/04 10:34:46;;;;;;;10.32;9.20;;;11.10;99.90;;;;;;5127385;27;20059;-73
2022/11/04 10:37:12;;;;;;;12.23;10.45;;;11.20;99.90;;;;;;5116836;27;20485;-73
2022/11/04 10:39:46;;;;;;;12.15;10.82;;;11.20;99.90;;;;;;5145230;27;20044;-73
2022/11/04 10:42:21;;;;;;;17.48;13.23;;;11.40;99.90;;;;;;5099252;27;20048;-76
2022/11/04 10:44:50;;;;;;;14.75;12.38;;;11.40;99.90;;;;;;5118515;27;20075;-75
2022/11/04 10:47:31;;;;;;;14.48;12.13;;;11.60;99.90;;;;;;5144131;27;20062;-76
2022/11/04 10:50:36;;;;;;;14.80;11.13;;;11.60;99.90;;;;;;5117632;27;20123;-75
2022/11/04 10:53:17;;;;;;;8.82;7.72;;;11.60;99.90;;;;;;5095217;27;20052;-76
2022/11/04 10:56:11;;;;;;;9.75;6.72;;;11.60;99.90;;;;;;5117347;27;20050;-75
2022/11/04 10:58:45;;;;;;;10.63;5.80;;;11.70;99.90;;;;;;5109806;27;20513;-76
2022/11/04 11:01:28;;;;;;;10.07;6.18;;;11.60;99.90;;;;;;5114942;27;20054;-75
2022/11/04 11:03:54;;;;;;;8.65;6.15;;;11.70;99.90;;;;;;5102223;27;20153;-76
2022/11/04 11:06:25;;;;;;;8.32;7.30;;;11.70;99.90;;;;;;5122016;27;20039;-76
2022/11/04 11:08:55;;;;;;;9.50;7.72;;;11.70;99.90;;;;;;5118193;27;20039;-76
2022/11/04 11:11:39;;;;;;;12.32;8.20;;;11.70;99.90;;;;;;5148037;27;20096;-76
2022/11/04 11:14:27;;;;;;;9.10;7.07;;;11.80;99.90;;;;;;5126590;27;20051;-76
2022/11/04 11:16:53;;;;;;;10.40;7.80;;;11.80;99.90;;;;;;5111653;27;20774;-76
2022/11/04 11:19:21;;;;;;;9.65;8.65;;;11.90;99.90;;;;;;5106694;27;20376;-76
2022/11/04 11:21:50;;;;;;;9.48;6.80;;;11.90;99.90;;;;;;5124009;27;20672;-76
2022/11/04 11:24:18;;;;;;;10.52;6.50;;;12.00;99.90;;;;;;5127693;27;20066;-76
2022/11/04 11:26:48;;;;;;;9.27;6.75;;;12.10;99.90;;;;;;5102871;27;20125;-76
2022/11/04 11:29:21;;;;;;;7.40;5.85;;;12.10;99.90;;;;;;5088737;27;20803;-76
2022/11/04 11:31:47;;;;;;;12.02;5.85;;;12.10;99.90;;;;;;5107294;27;20082;-76
2022/11/04 11:34:18;;;;;;;6.03;5.13;;;12.10;99.90;;;;;;5098490;27;20073;-76
2022/11/04 11:36:46;;;;;;;9.15;6.35;;;12.20;99.90;;;;;;5122498;27;20069;-76
2022/11/04 11:39:18;;;;;;;9.23;6.28;;;12.30;99.90;;;;;;5116897;27;20078;-76
2022/11/04 11:42:06;;;;;;;11.23;6.93;;;12.40;99.90;;;;;;5139111;27;20042;-76
2022/11/04 11:44:33;;;;;;;8.98;7.20;;;12.50;99.90;;;;;;5107268;27;20070;-76
2022/11/04 11:47:02;;;;;;;12.75;8.55;;;12.50;99.90;;;;;;5125925;27;20047;-76
2022/11/04 11:49:35;;;;;;;11.38;7.65;;;12.50;99.90;;;;;;5125630;27;20047;-76
2022/11/04 11:52:25;;;;;;;8.85;6.53;;;12.50;99.90;;;;;;5123346;27;20134;-76
2022/11/04 11:55:00;;;;;;;7.13;5.43;;;12.60;99.90;;;;;;5121472;27;20058;-76
2022/11/04 11:57:43;;;;;;;7.18;5.47;;;12.60;99.90;;;;;;5118404;27;20090;-77
2022/11/04 12:00:14;;;;;;;12.13;5.88;;;12.70;99.90;;;;;;5118279;27;20165;-75
2022/11/04 12:02:59;;;;;;;5.32;1.30;;;12.70;99.90;;;;;;5106080;27;20054;-73
2022/11/04 12:05:42;;;;;;;3.08;0.88;;;12.60;99.90;;;;;;5103705;27;20043;-73
2022/11/04 12:08:31;;;;;;;4.47;0.82;;;12.20;99.90;;;;;;5125084;27;20053;-73
2022/11/04 12:11:07;;;;;;;5.47;0.95;;;11.80;99.90;;;;;;5129190;27;20043;-73
2022/11/04 12:13:44;;;;;;;4.38;1.23;;;11.50;99.90;;;;;;5121756;27;20450;-73
2022/11/04 12:16:31;;;;;;;4.40;0.95;;;11.20;99.90;;;;;;5108059;27;20119;-73
2022/11/04 12:19:21;;;;;;;3.97;0.95;;;11.00;99.90;;;;;;5122686;27;20534;-73
2022/11/04 12:22:02;;;;;;;3.90;0.83;;;10.80;99.90;;;;;;5124457;27;20420;-73
2022/11/04 12:24:40;;;;;;;3.50;0.75;;;10.60;99.90;;;;;;5124219;27;20053;-73
2022/11/04 12:27:13;;;;;;;4.47;0.82;;;10.50;99.90;;;;;;5119270;27;20436;-72
2022/11/04 12:30:03;;;;;;;3.85;0.80;;;10.50;99.90;;;;;;5131209;27;20126;-73
2022/11/04 12:32:57;;;;;;;6.30;1.25;;;10.50;99.90;;;;;;5099071;27;20134;-72
2022/11/04 12:35:29;;;;;;;8.95;1.40;;;10.50;99.90;;;;;;5117655;27;20135;-72
2022/11/04 12:38:12;;;;;;;9.68;2.95;;;10.50;99.90;;;;;;5124306;27;20043;-73
2022/11/04 12:41:03;;;;;;;4.97;1.70;;;10.50;99.90;;;;;;5103847;27;20035;-70
2022/11/04 12:43:39;;;;;;;;;;;10.50;99.90;;;;;;5104471;27;20048;-70
2022/11/04 12:46:14;;;;;;;5.60;1.58;;;10.40;99.90;;;;;;5109807;27;19923;-70
2022/11/04 12:48:59;;;;;;;6.47;1.42;;;10.40;99.90;;;;;;5121702;27;20251;-69
2022/11/04 12:51:46;;;;;;;7.28;1.90;;;10.50;99.90;;;;;;5099931;27;20083;-69
2022/11/04 12:54:43;;;;;;;9.98;2.63;;;10.40;99.90;;;;;;5139614;27;20107;-69
2022/11/04 12:57:30;;;;;;;6.20;2.15;;;10.50;99.90;;;;;;5117053;27;20031;-69
2022/11/04 13:00:05;;;;;;;3.63;1.30;;;10.40;99.90;;;;;;5155085;27;20075;-70
2022/11/04 13:02:53;;;;;;;8.48;2.47;;;10.50;99.90;;;;;;5115856;27;20401;-70
2022/11/04 13:05:47;;;;;;;6.40;1.55;;;10.50;99.90;;;;;;5124466;27;20036;-69
2022/11/04 13:08:19;;;;;;;5.38;1.58;;;10.50;99.90;;;;;;5151536;27;20078;-69
2022/11/04 13:11:02;;;;;;;6.85;1.70;;;10.40;99.90;;;;;;5102567;27;20130;-69
2022/11/04 13:13:35;;;;;;;3.40;1.50;;;10.50;99.90;;;;;;5125706;27;20126;-69
2022/11/04 13:16:09;;;;;;;5.13;1.33;;;10.50;99.90;;;;;;5120603;27;20038;-70
2022/11/04 13:18:38;;;;;;;4.78;1.60;;;10.40;99.90;;;;;;5118414;27;20082;-70
2022/11/04 13:21:13;;;;;;;6.18;1.70;;;10.50;99.90;;;;;;5101101;27;20039;-69
2022/11/04 13:23:41;;;;;;;5.60;1.33;;;10.50;99.90;;;;;;5091878;27;20054;-69
2022/11/04 13:26:13;;;;;;;5.05;1.63;;;10.60;99.90;;;;;;5119178;27;20106;-70
2022/11/04 13:28:40;;;;;;;5.20;1.45;;;10.70;99.90;;;;;;5151435;27;20074;-72
2022/11/04 13:31:11;;;;;;;5.57;1.35;;;10.70;99.90;;;;;;5113521;27;20034;-70
2022/11/04 13:34:04;;;;;;;5.50;1.40;;;10.70;99.90;;;;;;5108990;27;20043;-70
2022/11/04 13:36:47;;;;;;;5.93;2.05;;;10.80;99.90;;;;;;5110133;27;20043;-70
2022/11/04 13:39:38;;;;;;;6.00;2.00;;;10.70;99.90;;;;;;5108508;27;20054;-70
2022/11/04 13:43:36;;;;;;;4.00;1.27;;;10.70;99.90;;;;;;5112657;27;20039;-70
2022/11/04 13:45:50;;;;;;;9.02;1.75;;;10.70;99.90;;;;;;5099135;27;20047;-70